Cse Prosperity Expr. — 3EES5 — position and weather

sailwx.info

Track history (hours):
 
Tides and Currents Weather Stations Pressure Air Temp Water Temp Dewpoint Dewpoint Depression Visibility Wind Speed Wind Dir Waves Ship Positions

Cse Prosperity Expr.

Last reported at 2016-Dec-03 01:16 UTC. Time now 2016-Dec-04 01:57 UTC.
Position N 22°51' E 120°02'.

Length 168 m; draft 5.6 m.

Type: Cargo ship. MMSI: 371801000.

Date/timePositionNaut miles runAvg speedWind from/ knotsBaromVisibWave heightAir tempDewpointWater temp
2016-Dec-03 01:16N 22°51' E 120°02'1114.9
2016-Dec-03 00:33N 22°44' E 120°10'6 6.2
2016-Dec-02 23:31N 22°38' E 120°14'0 0.1
2016-Dec-02 22:31N 22°38' E 120°14'0 0.1
2016-Dec-02 21:31N 22°38' E 120°14'0 0.0
2016-Dec-02 20:31N 22°38' E 120°14'0 0.0
2016-Dec-02 19:19N 22°38' E 120°14'0 0.0
2016-Dec-02 18:31N 22°38' E 120°14'0 0.0
2016-Dec-02 17:25N 22°38' E 120°14'0 0.0
2016-Dec-02 16:31N 22°38' E 120°14'0 0.0
2016-Dec-02 15:31N 22°38' E 120°14'0 0.0
2016-Dec-02 14:31N 22°38' E 120°14'0 0.0
2016-Dec-02 13:31N 22°38' E 120°14'0 0.0
2016-Dec-02 12:31N 22°38' E 120°14'0 0.0
2016-Dec-02 11:31N 22°38' E 120°14'0 0.1
2016-Dec-02 10:31N 22°38' E 120°14'0 0.0
2016-Dec-02 09:25N 22°38' E 120°14'0 0.0
2016-Dec-02 08:31N 22°38' E 120°14'0 0.0
2016-Dec-02 07:31N 22°38' E 120°14'0 0.0
2016-Dec-02 06:31N 22°38' E 120°14'0 0.0
2016-Dec-02 05:31N 22°38' E 120°14'0 0.0
2016-Dec-02 04:31N 22°38' E 120°14'0 0.1
2016-Dec-02 03:31N 22°38' E 120°14'0 0.1
2016-Dec-02 02:31N 22°38' E 120°14'0 0.0
2016-Dec-02 01:31N 22°38' E 120°14'0 0.0
2016-Dec-02 00:19N 22°38' E 120°14'0 0.0
2016-Dec-01 23:31N 22°38' E 120°14'0 0.0
2016-Dec-01 22:25N 22°38' E 120°14'0 0.0
2016-Dec-01 21:31N 22°38' E 120°14'0 0.0
2016-Dec-01 20:31N 22°38' E 120°14'0 0.0
2016-Dec-01 19:31N 22°38' E 120°14'0 0.0
2016-Dec-01 18:31N 22°38' E 120°14'0 0.0
2016-Dec-01 17:19N 22°38' E 120°14'0 0.1
2016-Dec-01 16:31N 22°38' E 120°14'0 0.1
2016-Dec-01 15:31N 22°38' E 120°14'0 0.0
2016-Dec-01 14:31N 22°38' E 120°14'0 0.0
2016-Dec-01 13:31N 22°38' E 120°14'0 0.0
2016-Dec-01 12:31N 22°38' E 120°14'0 0.0
2016-Dec-01 10:31N 22°38' E 120°14'0 0.0
2016-Dec-01 09:31N 22°38' E 120°14'3 3.4
2016-Dec-01 08:33N 22°37' E 120°17'1 0.7
2016-Dec-01 07:32N 22°36' E 120°18'0 0.0
2016-Dec-01 06:32N 22°36' E 120°18'0 0.0
2016-Dec-01 05:32N 22°36' E 120°18'0 0.0
2016-Dec-01 04:14N 22°36' E 120°18'0 0.0
2016-Dec-01 03:32N 22°36' E 120°18'0 0.0
2016-Dec-01 02:32N 22°36' E 120°18'0 0.0
2016-Dec-01 01:32N 22°36' E 120°18'0 0.0
2016-Dec-01 00:26N 22°36' E 120°18'0 0.0
2016-Nov-30 23:32N 22°36' E 120°18'0 0.0
2016-Nov-30 22:32N 22°36' E 120°18'0 0.0
2016-Nov-30 21:14N 22°36' E 120°18'0 0.0
2016-Nov-30 20:26N 22°36' E 120°18'0 0.0
2016-Nov-30 19:32N 22°36' E 120°18'0 0.0
2016-Nov-30 17:32N 22°36' E 120°18'0 0.0
2016-Nov-30 16:26N 22°36' E 120°18'0 0.0
2016-Nov-30 15:32N 22°36' E 120°18'0 0.0
2016-Nov-30 14:32N 22°36' E 120°18'0 0.0
2016-Nov-30 13:32N 22°36' E 120°18'0 0.0
2016-Nov-30 12:32N 22°36' E 120°18'0 0.0
2016-Nov-30 11:32N 22°36' E 120°18'0 0.0
2016-Nov-30 10:08N 22°36' E 120°18'0 0.0
2016-Nov-30 09:14N 22°36' E 120°18'0 0.0
2016-Nov-30 08:32N 22°36' E 120°18'0 0.0
2016-Nov-30 07:32N 22°36' E 120°18'0 0.0
2016-Nov-30 06:32N 22°36' E 120°18'0 0.0
2016-Nov-30 05:32N 22°36' E 120°18'0 0.0
2016-Nov-30 04:20N 22°36' E 120°18'0 0.0
2016-Nov-30 03:32N 22°36' E 120°18'1 1.1
2016-Nov-30 02:33N 22°37' E 120°17'5 5.2
2016-Nov-30 01:33N 22°38' E 120°11'9 9.0
2016-Nov-30 00:33N 22°45' E 120°06'  
2016-Nov-26 01:28N 33°57' E 134°54'1212.7
2016-Nov-26 00:33N 34°07' E 135°00'9 9.4
2016-Nov-25 23:34N 34°14' E 135°07'0 0.2
2016-Nov-25 22:32N 34°14' E 135°07'0 0.0
2016-Nov-25 21:32N 34°14' E 135°07'0 0.0
2016-Nov-25 20:32N 34°14' E 135°07'0 0.0
2016-Nov-25 19:32N 34°14' E 135°07'0 0.0
2016-Nov-25 18:32N 34°14' E 135°07'0 0.0
2016-Nov-25 17:32N 34°14' E 135°07'0 0.0
2016-Nov-25 16:32N 34°14' E 135°07'0 0.0
2016-Nov-25 15:32N 34°14' E 135°07'0 0.0
2016-Nov-25 14:32N 34°14' E 135°07'0 0.0
2016-Nov-25 13:32N 34°14' E 135°07'0 0.0
2016-Nov-25 12:32N 34°14' E 135°07'0 0.0
2016-Nov-25 11:32N 34°14' E 135°07'0 0.0
2016-Nov-25 10:32N 34°14' E 135°07'0 0.0
2016-Nov-25 09:32N 34°14' E 135°07'0 0.0
2016-Nov-25 08:32N 34°14' E 135°07'0 0.0
2016-Nov-25 07:32N 34°14' E 135°07'0 0.0
2016-Nov-25 06:32N 34°14' E 135°07'0 0.0
2016-Nov-25 05:32N 34°14' E 135°07'0 0.0
2016-Nov-25 04:32N 34°14' E 135°07'0 0.0
2016-Nov-25 03:32N 34°14' E 135°07'0 0.0
2016-Nov-25 02:32N 34°14' E 135°07'0 0.0
2016-Nov-25 01:32N 34°14' E 135°07'0 0.0
2016-Nov-25 00:32N 34°14' E 135°07'0 0.0
2016-Nov-24 23:32N 34°14' E 135°07'0 0.0
2016-Nov-24 22:32N 34°14' E 135°07'0 0.0
2016-Nov-24 21:32N 34°14' E 135°07'0 0.0
2016-Nov-24 20:32N 34°14' E 135°07'0 0.0
2016-Nov-24 19:32N 34°14' E 135°07'0 0.0
2016-Nov-24 18:32N 34°14' E 135°07'0 0.0
2016-Nov-24 17:32N 34°14' E 135°07'0 0.0
2016-Nov-24 16:32N 34°14' E 135°07'0 0.0
2016-Nov-24 15:32N 34°14' E 135°07'0 0.0
2016-Nov-24 14:32N 34°14' E 135°07'0 0.0
2016-Nov-24 13:32N 34°14' E 135°07'0 0.0
2016-Nov-24 12:32N 34°14' E 135°07'0 0.0
2016-Nov-24 11:32N 34°14' E 135°07'0 0.0
2016-Nov-24 10:26N 34°14' E 135°07'0 0.0
2016-Nov-24 09:32N 34°14' E 135°07'0 0.0
2016-Nov-24 08:32N 34°14' E 135°07'0 0.0
2016-Nov-24 07:32N 34°14' E 135°07'0 0.0
2016-Nov-24 06:32N 34°14' E 135°07'0 0.0
2016-Nov-24 05:32N 34°14' E 135°07'0 0.0
2016-Nov-24 04:29N 34°14' E 135°07'0 0.0
2016-Nov-24 03:32N 34°14' E 135°07'0 0.0
2016-Nov-24 02:32N 34°14' E 135°07'0 0.0
2016-Nov-24 01:32N 34°14' E 135°07'0 0.0
2016-Nov-24 00:32N 34°14' E 135°07'0 0.0
2016-Nov-23 23:32N 34°14' E 135°07'0 0.0
2016-Nov-23 22:32N 34°14' E 135°07'0 0.0
2016-Nov-23 21:32N 34°14' E 135°07'0 0.0
2016-Nov-23 20:32N 34°14' E 135°07'0 0.0
2016-Nov-23 19:32N 34°14' E 135°07'0 0.0
2016-Nov-23 18:32N 34°14' E 135°07'0 0.0
2016-Nov-23 17:32N 34°14' E 135°07'0 0.0
2016-Nov-23 16:32N 34°14' E 135°07'0 0.0
2016-Nov-23 15:32N 34°14' E 135°07'0 0.0
2016-Nov-23 14:32N 34°14' E 135°07'0 0.0
2016-Nov-23 13:32N 34°14' E 135°07'0 0.0
2016-Nov-23 12:32N 34°14' E 135°07'0 0.0
2016-Nov-23 11:32N 34°14' E 135°07'0 0.0
2016-Nov-23 10:32N 34°14' E 135°07'0 0.0
2016-Nov-23 09:32N 34°14' E 135°07'0 0.0
2016-Nov-23 08:32N 34°14' E 135°07'0 0.0
2016-Nov-23 07:32N 34°14' E 135°07'0 0.0
2016-Nov-23 06:32N 34°14' E 135°07'0 0.0
2016-Nov-23 03:32N 34°14' E 135°07'0 0.0
2016-Nov-23 02:32N 34°14' E 135°07'  
Track history (hours):
 
Tides and Currents Weather Stations Pressure Air Temp Water Temp Dewpoint Dewpoint Depression Visibility Wind Speed Wind Dir Waves Ship Positions

Cse Prosperity Expr.

Last reported at 2016-Dec-03 01:16 UTC. Time now 2016-Dec-04 01:57 UTC.
Position N 22°51' E 120°02'.

Length 168 m; draft 5.6 m.

Type: Cargo ship. MMSI: 371801000.

Date/timePositionNaut miles runAvg speedWind from/ knotsBaromVisibWave heightAir tempDewpointWater temp
2016-Dec-03 01:16N 22°51' E 120°02'1114.9
2016-Dec-03 00:33N 22°44' E 120°10'6 6.2
2016-Dec-02 23:31N 22°38' E 120°14'0 0.1
2016-Dec-02 22:31N 22°38' E 120°14'0 0.1
2016-Dec-02 21:31N 22°38' E 120°14'0 0.0
2016-Dec-02 20:31N 22°38' E 120°14'0 0.0
2016-Dec-02 19:19N 22°38' E 120°14'0 0.0
2016-Dec-02 18:31N 22°38' E 120°14'0 0.0
2016-Dec-02 17:25N 22°38' E 120°14'0 0.0
2016-Dec-02 16:31N 22°38' E 120°14'0 0.0
2016-Dec-02 15:31N 22°38' E 120°14'0 0.0
2016-Dec-02 14:31N 22°38' E 120°14'0 0.0
2016-Dec-02 13:31N 22°38' E 120°14'0 0.0
2016-Dec-02 12:31N 22°38' E 120°14'0 0.0
2016-Dec-02 11:31N 22°38' E 120°14'0 0.1
2016-Dec-02 10:31N 22°38' E 120°14'0 0.0
2016-Dec-02 09:25N 22°38' E 120°14'0 0.0
2016-Dec-02 08:31N 22°38' E 120°14'0 0.0
2016-Dec-02 07:31N 22°38' E 120°14'0 0.0
2016-Dec-02 06:31N 22°38' E 120°14'0 0.0
2016-Dec-02 05:31N 22°38' E 120°14'0 0.0
2016-Dec-02 04:31N 22°38' E 120°14'0 0.1
2016-Dec-02 03:31N 22°38' E 120°14'0 0.1
2016-Dec-02 02:31N 22°38' E 120°14'0 0.0
2016-Dec-02 01:31N 22°38' E 120°14'0 0.0
2016-Dec-02 00:19N 22°38' E 120°14'0 0.0
2016-Dec-01 23:31N 22°38' E 120°14'0 0.0
2016-Dec-01 22:25N 22°38' E 120°14'0 0.0
2016-Dec-01 21:31N 22°38' E 120°14'0 0.0
2016-Dec-01 20:31N 22°38' E 120°14'0 0.0
2016-Dec-01 19:31N 22°38' E 120°14'0 0.0
2016-Dec-01 18:31N 22°38' E 120°14'0 0.0
2016-Dec-01 17:19N 22°38' E 120°14'0 0.1
2016-Dec-01 16:31N 22°38' E 120°14'0 0.1
2016-Dec-01 15:31N 22°38' E 120°14'0 0.0
2016-Dec-01 14:31N 22°38' E 120°14'0 0.0
2016-Dec-01 13:31N 22°38' E 120°14'0 0.0
2016-Dec-01 12:31N 22°38' E 120°14'0 0.0
2016-Dec-01 10:31N 22°38' E 120°14'0 0.0
2016-Dec-01 09:31N 22°38' E 120°14'3 3.4
2016-Dec-01 08:33N 22°37' E 120°17'1 0.7
2016-Dec-01 07:32N 22°36' E 120°18'0 0.0
2016-Dec-01 06:32N 22°36' E 120°18'0 0.0
2016-Dec-01 05:32N 22°36' E 120°18'0 0.0
2016-Dec-01 04:14N 22°36' E 120°18'0 0.0
2016-Dec-01 03:32N 22°36' E 120°18'0 0.0
2016-Dec-01 02:32N 22°36' E 120°18'0 0.0
2016-Dec-01 01:32N 22°36' E 120°18'0 0.0
2016-Dec-01 00:26N 22°36' E 120°18'0 0.0
2016-Nov-30 23:32N 22°36' E 120°18'0 0.0
2016-Nov-30 22:32N 22°36' E 120°18'0 0.0
2016-Nov-30 21:14N 22°36' E 120°18'0 0.0
2016-Nov-30 20:26N 22°36' E 120°18'0 0.0
2016-Nov-30 19:32N 22°36' E 120°18'0 0.0
2016-Nov-30 17:32N 22°36' E 120°18'0 0.0
2016-Nov-30 16:26N 22°36' E 120°18'0 0.0
2016-Nov-30 15:32N 22°36' E 120°18'0 0.0
2016-Nov-30 14:32N 22°36' E 120°18'0 0.0
2016-Nov-30 13:32N 22°36' E 120°18'0 0.0
2016-Nov-30 12:32N 22°36' E 120°18'0 0.0
2016-Nov-30 11:32N 22°36' E 120°18'0 0.0
2016-Nov-30 10:08N 22°36' E 120°18'0 0.0
2016-Nov-30 09:14N 22°36' E 120°18'0 0.0
2016-Nov-30 08:32N 22°36' E 120°18'0 0.0
2016-Nov-30 07:32N 22°36' E 120°18'0 0.0
2016-Nov-30 06:32N 22°36' E 120°18'0 0.0
2016-Nov-30 05:32N 22°36' E 120°18'0 0.0
2016-Nov-30 04:20N 22°36' E 120°18'0 0.0
2016-Nov-30 03:32N 22°36' E 120°18'1 1.1
2016-Nov-30 02:33N 22°37' E 120°17'5 5.2
2016-Nov-30 01:33N 22°38' E 120°11'9 9.0
2016-Nov-30 00:33N 22°45' E 120°06'  
2016-Nov-26 01:28N 33°57' E 134°54'1212.7
2016-Nov-26 00:33N 34°07' E 135°00'9 9.4
2016-Nov-25 23:34N 34°14' E 135°07'0 0.2
2016-Nov-25 22:32N 34°14' E 135°07'0 0.0
2016-Nov-25 21:32N 34°14' E 135°07'0 0.0
2016-Nov-25 20:32N 34°14' E 135°07'0 0.0
2016-Nov-25 19:32N 34°14' E 135°07'0 0.0
2016-Nov-25 18:32N 34°14' E 135°07'0 0.0
2016-Nov-25 17:32N 34°14' E 135°07'0 0.0
2016-Nov-25 16:32N 34°14' E 135°07'0 0.0
2016-Nov-25 15:32N 34°14' E 135°07'0 0.0
2016-Nov-25 14:32N 34°14' E 135°07'0 0.0
2016-Nov-25 13:32N 34°14' E 135°07'0 0.0
2016-Nov-25 12:32N 34°14' E 135°07'0 0.0
2016-Nov-25 11:32N 34°14' E 135°07'0 0.0
2016-Nov-25 10:32N 34°14' E 135°07'0 0.0
2016-Nov-25 09:32N 34°14' E 135°07'0 0.0
2016-Nov-25 08:32N 34°14' E 135°07'0 0.0
2016-Nov-25 07:32N 34°14' E 135°07'0 0.0
2016-Nov-25 06:32N 34°14' E 135°07'0 0.0
2016-Nov-25 05:32N 34°14' E 135°07'0 0.0
2016-Nov-25 04:32N 34°14' E 135°07'0 0.0
2016-Nov-25 03:32N 34°14' E 135°07'0 0.0
2016-Nov-25 02:32N 34°14' E 135°07'0 0.0
2016-Nov-25 01:32N 34°14' E 135°07'0 0.0
2016-Nov-25 00:32N 34°14' E 135°07'0 0.0
2016-Nov-24 23:32N 34°14' E 135°07'0 0.0
2016-Nov-24 22:32N 34°14' E 135°07'0 0.0
2016-Nov-24 21:32N 34°14' E 135°07'0 0.0
2016-Nov-24 20:32N 34°14' E 135°07'0 0.0
2016-Nov-24 19:32N 34°14' E 135°07'0 0.0
2016-Nov-24 18:32N 34°14' E 135°07'0 0.0
2016-Nov-24 17:32N 34°14' E 135°07'0 0.0
2016-Nov-24 16:32N 34°14' E 135°07'0 0.0
2016-Nov-24 15:32N 34°14' E 135°07'0 0.0
2016-Nov-24 14:32N 34°14' E 135°07'0 0.0
2016-Nov-24 13:32N 34°14' E 135°07'0 0.0
2016-Nov-24 12:32N 34°14' E 135°07'0 0.0
2016-Nov-24 11:32N 34°14' E 135°07'0 0.0
2016-Nov-24 10:26N 34°14' E 135°07'0 0.0
2016-Nov-24 09:32N 34°14' E 135°07'0 0.0
2016-Nov-24 08:32N 34°14' E 135°07'0 0.0
2016-Nov-24 07:32N 34°14' E 135°07'0 0.0
2016-Nov-24 06:32N 34°14' E 135°07'0 0.0
2016-Nov-24 05:32N 34°14' E 135°07'0 0.0
2016-Nov-24 04:29N 34°14' E 135°07'0 0.0
2016-Nov-24 03:32N 34°14' E 135°07'0 0.0
2016-Nov-24 02:32N 34°14' E 135°07'0 0.0
2016-Nov-24 01:32N 34°14' E 135°07'0 0.0
2016-Nov-24 00:32N 34°14' E 135°07'0 0.0
2016-Nov-23 23:32N 34°14' E 135°07'0 0.0
2016-Nov-23 22:32N 34°14' E 135°07'0 0.0
2016-Nov-23 21:32N 34°14' E 135°07'0 0.0
2016-Nov-23 20:32N 34°14' E 135°07'0 0.0
2016-Nov-23 19:32N 34°14' E 135°07'0 0.0
2016-Nov-23 18:32N 34°14' E 135°07'0 0.0
2016-Nov-23 17:32N 34°14' E 135°07'0 0.0
2016-Nov-23 16:32N 34°14' E 135°07'0 0.0
2016-Nov-23 15:32N 34°14' E 135°07'0 0.0
2016-Nov-23 14:32N 34°14' E 135°07'0 0.0
2016-Nov-23 13:32N 34°14' E 135°07'0 0.0
2016-Nov-23 12:32N 34°14' E 135°07'0 0.0
2016-Nov-23 11:32N 34°14' E 135°07'0 0.0
2016-Nov-23 10:32N 34°14' E 135°07'0 0.0
2016-Nov-23 09:32N 34°14' E 135°07'0 0.0
2016-Nov-23 08:32N 34°14' E 135°07'0 0.0
2016-Nov-23 07:32N 34°14' E 135°07'0 0.0
2016-Nov-23 06:32N 34°14' E 135°07'0 0.0
2016-Nov-23 03:32N 34°14' E 135°07'0 0.0
2016-Nov-23 02:32N 34°14' E 135°07'  

Dump ship's entire track history